createdAt,value
2023-03-03T00:00:53.402Z,101928.22
2023-03-03T00:03:23.441Z,101934.13
2023-03-03T00:05:53.366Z,101932.44
2023-03-03T00:08:21.913Z,101926.09
2023-03-03T00:10:49.599Z,101936.03
2023-03-03T00:13:19.316Z,101936.00
2023-03-03T00:15:47.743Z,101937.56
2023-03-03T00:18:23.662Z,101929.00
2023-03-03T00:20:55.150Z,101923.13
2023-03-03T00:23:30.846Z,101931.09
2023-03-03T00:25:59.450Z,101904.06
2023-03-03T00:28:30.732Z,101892.97
2023-03-03T00:31:00.023Z,101907.63
2023-03-03T00:33:32.611Z,101907.38
2023-03-03T00:36:31.624Z,101906.50
2023-03-03T00:39:12.881Z,101921.53
2023-03-03T00:41:40.963Z,101925.44
2023-03-03T00:44:34.287Z,101902.94
2023-03-03T00:47:13.507Z,101907.75
2023-03-03T00:49:41.566Z,101895.81
2023-03-03T00:52:17.185Z,101909.13
2023-03-03T00:54:44.797Z,101913.56
2023-03-03T00:57:13.610Z,101909.69
2023-03-03T00:59:41.350Z,101908.31
2023-03-03T01:02:08.854Z,101899.09
2023-03-03T01:04:36.367Z,101890.34
2023-03-03T01:07:04.246Z,101881.34
2023-03-03T01:09:33.108Z,101882.03
2023-03-03T01:12:00.795Z,101897.63
2023-03-03T01:14:28.354Z,101886.53
2023-03-03T01:16:55.911Z,101890.56
2023-03-03T01:19:23.363Z,101898.34
2023-03-03T01:21:52.258Z,101897.63
2023-03-03T01:24:19.795Z,101895.44
2023-03-03T01:26:48.629Z,101884.81
2023-03-03T01:29:16.100Z,101885.75
2023-03-03T01:31:43.603Z,101883.03
2023-03-03T01:34:11.111Z,101872.88
2023-03-03T01:36:38.664Z,101876.56
2023-03-03T01:39:06.163Z,101864.75
2023-03-03T01:41:34.253Z,101850.06
2023-03-03T01:44:03.054Z,101860.09
2023-03-03T01:46:46.178Z,101852.25
2023-03-03T01:49:16.908Z,101845.28
2023-03-03T01:51:50.062Z,101850.19
2023-03-03T01:54:23.080Z,101844.34
2023-03-03T01:56:52.911Z,101854.88
2023-03-03T01:59:26.800Z,101852.38
2023-03-03T02:01:54.625Z,101857.84
2023-03-03T02:04:22.435Z,101852.97
2023-03-03T02:06:55.662Z,101854.63
2023-03-03T02:09:29.074Z,101854.22
2023-03-03T02:12:00.951Z,101870.53
2023-03-03T02:14:29.898Z,101871.03
2023-03-03T02:16:58.081Z,101864.47
2023-03-03T02:19:33.940Z,101867.47
2023-03-03T02:22:03.143Z,101865.88
2023-03-03T02:24:35.878Z,101871.03
2023-03-03T02:27:04.881Z,101868.88
2023-03-03T02:29:32.310Z,101875.31
2023-03-03T02:31:59.989Z,101875.63
2023-03-03T02:34:27.504Z,101872.97
2023-03-03T02:36:55.074Z,101875.13
2023-03-03T02:39:24.729Z,101871.19
2023-03-03T02:41:56.669Z,101869.44
2023-03-03T02:44:27.202Z,101862.41
2023-03-03T02:46:56.104Z,101879.50
2023-03-03T02:49:24.891Z,101872.56
2023-03-03T02:51:52.455Z,101870.53
2023-03-03T02:54:21.934Z,101867.28
2023-03-03T02:56:49.819Z,101874.81
2023-03-03T02:59:18.206Z,101874.72
2023-03-03T03:01:47.989Z,101866.69
2023-03-03T03:04:17.373Z,101876.47
2023-03-03T03:06:45.937Z,101878.56
2023-03-03T03:09:14.433Z,101883.13
2023-03-03T03:11:42.772Z,101878.22
2023-03-03T03:14:12.370Z,101879.78
2023-03-03T03:16:40.514Z,101883.13
2023-03-03T03:19:09.726Z,101897.41
2023-03-03T03:21:37.286Z,101902.03
2023-03-03T03:24:05.057Z,101910.78
2023-03-03T03:26:32.487Z,101897.78
2023-03-03T03:29:00.013Z,101897.84
2023-03-03T03:31:27.485Z,101908.50
2023-03-03T03:33:54.961Z,101905.72
2023-03-03T03:36:23.839Z,101908.84
2023-03-03T03:38:52.404Z,101914.09
2023-03-03T03:41:19.876Z,101900.34
2023-03-03T03:43:48.059Z,101893.84
2023-03-03T03:46:15.628Z,101894.09
2023-03-03T03:48:43.092Z,101893.84
2023-03-03T03:51:11.954Z,101890.53
2023-03-03T03:53:40.766Z,101884.28
2023-03-03T03:56:08.989Z,101884.47
2023-03-03T03:58:36.438Z,101885.09
2023-03-03T04:01:05.279Z,101884.13
2023-03-03T04:03:32.830Z,101877.66
2023-03-03T04:06:00.392Z,101872.94
2023-03-03T04:08:27.937Z,101878.63
2023-03-03T04:10:56.788Z,101873.16
2023-03-03T04:13:24.366Z,101866.88
2023-03-03T04:15:51.882Z,101866.28
2023-03-03T04:18:19.312Z,101869.59
2023-03-03T04:20:46.943Z,101864.97
2023-03-03T04:23:14.803Z,101874.28
2023-03-03T04:25:42.330Z,101872.34
2023-03-03T04:28:11.065Z,101868.28
2023-03-03T04:30:38.517Z,101864.00
2023-03-03T04:33:05.949Z,101860.56
2023-03-03T04:35:33.421Z,101859.56
2023-03-03T04:38:01.146Z,101865.88
2023-03-03T04:40:28.881Z,101852.72
2023-03-03T04:42:56.439Z,101856.25
2023-03-03T04:45:25.190Z,101862.75
2023-03-03T04:47:52.712Z,101863.78
2023-03-03T04:50:20.835Z,101857.50
2023-03-03T04:52:48.372Z,101864.34
2023-03-03T04:55:16.714Z,101873.69
2023-03-03T04:57:44.373Z,101863.56
2023-03-03T05:00:14.038Z,101860.25
2023-03-03T05:02:43.424Z,101858.09
2023-03-03T05:05:11.633Z,101860.31
2023-03-03T05:07:39.066Z,101858.63
2023-03-03T05:10:07.929Z,101852.19
2023-03-03T05:12:35.422Z,101849.47
2023-03-03T05:15:02.896Z,101849.09
2023-03-03T05:17:30.417Z,101846.38
2023-03-03T05:19:59.251Z,101843.31
2023-03-03T05:22:26.847Z,101848.78
2023-03-03T05:24:54.263Z,101839.94
2023-03-03T05:27:21.784Z,101839.78
2023-03-03T05:29:49.289Z,101838.81
2023-03-03T05:32:16.953Z,101848.66
2023-03-03T05:34:44.504Z,101855.03
2023-03-03T05:37:13.396Z,101863.78
2023-03-03T05:39:40.982Z,101879.59
2023-03-03T05:42:08.453Z,101884.94
2023-03-03T05:44:35.934Z,101882.63
2023-03-03T05:47:03.478Z,101886.97
2023-03-03T05:49:30.938Z,101881.13
2023-03-03T05:51:59.263Z,101890.50
2023-03-03T05:54:28.106Z,101891.38
2023-03-03T05:56:57.302Z,101894.34
2023-03-03T05:59:25.310Z,101883.25
2023-03-03T06:01:52.925Z,101885.44
2023-03-03T06:04:20.411Z,101886.28
2023-03-03T06:06:47.863Z,101877.56
2023-03-03T06:09:15.696Z,101884.50
2023-03-03T06:11:44.463Z,101886.50
2023-03-03T06:14:11.937Z,101890.91
2023-03-03T06:16:39.502Z,101902.47
2023-03-03T06:19:07.086Z,101896.31
2023-03-03T06:21:34.519Z,101903.06
2023-03-03T06:24:02.024Z,101899.38
2023-03-03T06:26:29.730Z,101907.22
2023-03-03T06:28:58.558Z,101911.78
2023-03-03T06:31:26.124Z,101906.91
2023-03-03T06:33:53.706Z,101907.91
2023-03-03T06:36:21.801Z,101910.28
2023-03-03T06:38:49.253Z,101907.94
2023-03-03T06:41:16.731Z,101910.16
2023-03-03T06:43:44.219Z,101903.06
2023-03-03T06:46:13.025Z,101905.38
2023-03-03T06:48:40.781Z,101910.25
2023-03-03T06:51:21.520Z,101908.50
2023-03-03T06:53:50.000Z,101911.19
2023-03-03T06:56:18.616Z,101917.47
2023-03-03T06:58:46.168Z,101911.22
2023-03-03T07:01:18.251Z,101932.28
2023-03-03T07:03:46.635Z,101934.03
2023-03-03T07:06:23.379Z,101938.13
2023-03-03T07:08:51.147Z,101942.72
2023-03-03T07:11:20.533Z,101928.47
2023-03-03T07:13:50.094Z,101921.63
2023-03-03T07:16:20.758Z,101940.34
2023-03-03T07:18:52.058Z,101934.81
2023-03-03T07:21:21.777Z,101935.69
2023-03-03T07:23:51.013Z,101947.03
2023-03-03T07:26:22.651Z,101942.66
2023-03-03T07:28:54.739Z,101949.41
2023-03-03T07:31:40.227Z,101955.56
2023-03-03T07:34:20.855Z,101956.59
2023-03-03T07:36:49.657Z,101964.81
2023-03-03T07:39:29.339Z,101964.88
2023-03-03T07:42:03.838Z,101966.31
2023-03-03T07:44:36.002Z,101963.38
2023-03-03T07:47:16.541Z,101963.19
2023-03-03T07:49:44.012Z,101965.38
2023-03-03T07:52:25.570Z,101975.06
2023-03-03T07:54:54.269Z,101978.91
2023-03-03T07:57:25.933Z,101969.16
2023-03-03T07:59:55.838Z,101970.31
2023-03-03T08:02:55.332Z,101961.63
2023-03-03T08:05:31.296Z,101959.69
2023-03-03T08:08:16.134Z,101966.56
2023-03-03T08:10:47.770Z,101968.31
2023-03-03T08:13:19.862Z,101964.16
2023-03-03T08:15:49.944Z,101956.66
2023-03-03T08:18:25.044Z,101958.78
2023-03-03T08:20:55.451Z,101960.34
2023-03-03T08:23:23.454Z,101965.69
2023-03-03T08:25:52.469Z,101964.91
2023-03-03T08:28:21.191Z,101959.25
2023-03-03T08:30:49.179Z,101961.06
2023-03-03T08:33:17.572Z,101959.75
2023-03-03T08:35:46.735Z,101952.06
2023-03-03T08:38:16.307Z,101952.91
2023-03-03T08:40:44.583Z,101963.50
2023-03-03T08:43:16.949Z,101954.88
2023-03-03T08:45:45.979Z,101967.03
2023-03-03T08:48:13.965Z,101970.81
2023-03-03T08:50:42.089Z,101964.56
2023-03-03T08:53:11.532Z,101977.19
2023-03-03T08:55:39.189Z,101974.47
2023-03-03T08:58:07.190Z,101963.91
2023-03-03T09:00:35.542Z,101970.69
2023-03-03T09:03:03.547Z,101962.81
2023-03-03T09:05:31.778Z,101962.53
2023-03-03T09:07:59.380Z,101965.31
2023-03-03T09:10:31.817Z,101954.72
2023-03-03T09:13:03.552Z,101944.03
2023-03-03T09:15:33.545Z,101942.63
2023-03-03T09:18:11.637Z,101936.28
2023-03-03T09:20:41.392Z,101945.38
2023-03-03T09:23:29.893Z,101939.81
2023-03-03T09:26:00.114Z,101929.13
2023-03-03T09:28:30.014Z,101922.63
2023-03-03T09:31:00.527Z,101919.28
2023-03-03T09:33:33.404Z,101920.16
2023-03-03T09:36:07.034Z,101912.72
2023-03-03T09:38:35.485Z,101923.88
2023-03-03T09:41:33.063Z,101916.56
2023-03-03T09:44:17.541Z,101919.59
2023-03-03T09:46:57.884Z,101932.22
2023-03-03T09:49:33.135Z,101953.19
2023-03-03T09:52:23.674Z,101950.09
2023-03-03T09:55:02.118Z,101956.16
2023-03-03T09:58:04.450Z,101957.78
2023-03-03T10:00:52.094Z,101951.78
2023-03-03T10:03:54.695Z,101951.41
2023-03-03T10:06:28.938Z,101952.47
2023-03-03T10:09:10.062Z,101966.00
2023-03-03T10:11:42.875Z,101960.13
2023-03-03T10:14:30.615Z,101954.84
2023-03-03T10:17:15.941Z,101956.28
2023-03-03T10:19:58.353Z,101957.06
2023-03-03T10:22:35.926Z,101944.19
2023-03-03T10:25:15.068Z,101940.69
2023-03-03T10:27:54.470Z,101944.50
2023-03-03T10:30:39.867Z,101944.56
2023-03-03T10:33:22.580Z,101947.19
2023-03-03T10:36:18.892Z,101957.19
2023-03-03T10:38:56.337Z,101941.25
2023-03-03T10:41:44.636Z,101946.84
2023-03-03T10:44:33.251Z,101947.00
2023-03-03T10:47:22.510Z,101943.22
2023-03-03T10:50:02.509Z,101942.66
2023-03-03T10:52:38.785Z,101942.59
2023-03-03T10:55:39.722Z,101957.56
2023-03-03T10:58:20.517Z,101956.63
2023-03-03T11:00:53.444Z,101953.47
2023-03-03T11:03:50.866Z,101959.34
2023-03-03T11:06:23.270Z,101961.81
2023-03-03T11:08:54.837Z,101951.06
2023-03-03T11:11:33.669Z,101949.13
2023-03-03T11:14:07.264Z,101948.34
2023-03-03T11:16:43.068Z,101950.78
2023-03-03T11:19:30.162Z,101961.94
2023-03-03T11:22:08.381Z,101944.56
2023-03-03T11:24:51.107Z,101942.28
2023-03-03T11:27:34.577Z,101936.25
2023-03-03T11:30:17.795Z,101943.03
2023-03-03T11:32:52.764Z,101943.22
2023-03-03T11:35:26.046Z,101944.81
2023-03-03T11:38:13.638Z,101932.25
2023-03-03T11:40:48.539Z,101934.69
2023-03-03T11:43:35.699Z,101931.97
2023-03-03T11:46:08.844Z,101929.41
2023-03-03T11:48:44.735Z,101933.38
2023-03-03T11:51:16.864Z,101938.03
2023-03-03T11:53:58.326Z,101936.97
2023-03-03T11:56:28.964Z,101934.03
2023-03-03T11:59:08.515Z,101924.69
2023-03-03T12:01:43.713Z,101918.84
2023-03-03T12:04:16.830Z,101916.41
2023-03-03T12:07:12.862Z,101919.22
2023-03-03T12:09:54.063Z,101903.41
2023-03-03T12:12:24.892Z,101897.16
2023-03-03T12:15:05.523Z,101897.03
2023-03-03T12:17:52.075Z,101898.28
2023-03-03T12:20:26.694Z,101888.44
2023-03-03T12:23:08.966Z,101878.84
2023-03-03T12:25:40.975Z,101880.13
2023-03-03T12:28:12.838Z,101882.09
2023-03-03T12:31:10.910Z,101872.25
2023-03-03T12:33:53.031Z,101863.00
2023-03-03T12:36:37.862Z,101868.41
2023-03-03T12:39:13.533Z,101866.94
2023-03-03T12:41:47.773Z,101875.78
2023-03-03T12:44:21.966Z,101869.91
2023-03-03T12:47:01.880Z,101865.72
2023-03-03T12:49:43.443Z,101862.78
2023-03-03T12:52:24.197Z,101860.81
2023-03-03T12:55:05.014Z,101864.91
2023-03-03T12:57:40.263Z,101858.84
2023-03-03T13:00:28.744Z,101851.69
2023-03-03T13:03:05.187Z,101851.13
2023-03-03T13:05:45.910Z,101844.69
2023-03-03T13:08:43.405Z,101840.41
2023-03-03T13:11:28.530Z,101837.41
2023-03-03T13:14:05.268Z,101839.84
2023-03-03T13:16:41.587Z,101843.94
2023-03-03T13:19:12.382Z,101847.59
2023-03-03T13:21:47.148Z,101837.56
2023-03-03T13:24:21.879Z,101833.97
2023-03-03T13:26:55.402Z,101831.81
2023-03-03T13:29:28.275Z,101841.75
2023-03-03T13:31:58.108Z,101831.13
2023-03-03T13:34:39.002Z,101827.56
2023-03-03T13:37:13.472Z,101819.13
2023-03-03T13:39:50.867Z,101825.53
2023-03-03T13:42:25.529Z,101818.97
2023-03-03T13:44:53.892Z,101816.25
2023-03-03T13:47:29.729Z,101817.84
2023-03-03T13:50:20.960Z,101818.84
2023-03-03T13:53:02.340Z,101809.94
2023-03-03T13:55:34.819Z,101805.78
2023-03-03T13:58:13.208Z,101799.03
2023-03-03T14:00:52.696Z,101800.75
2023-03-03T14:03:52.512Z,101809.72
2023-03-03T14:06:22.706Z,101806.38
2023-03-03T14:09:23.542Z,101806.34
2023-03-03T14:11:58.127Z,101802.22
2023-03-03T14:14:38.922Z,101796.22
2023-03-03T14:17:14.674Z,101799.84
2023-03-03T14:19:45.717Z,101789.13
2023-03-03T14:22:23.668Z,101792.94
2023-03-03T14:25:00.507Z,101792.84
2023-03-03T14:27:34.389Z,101789.78
2023-03-03T14:30:26.975Z,101797.41
2023-03-03T14:33:03.603Z,101787.56
2023-03-03T14:35:34.383Z,101771.31
2023-03-03T14:38:03.745Z,101771.63
2023-03-03T14:40:33.447Z,101777.66
2023-03-03T14:43:02.306Z,101779.84
2023-03-03T14:45:40.781Z,101768.22
2023-03-03T14:48:16.346Z,101768.91
2023-03-03T14:50:49.852Z,101756.69
2023-03-03T14:53:23.964Z,101759.38
2023-03-03T14:55:53.346Z,101755.31
2023-03-03T14:58:36.139Z,101753.19
2023-03-03T15:01:16.595Z,101741.09
2023-03-03T15:03:52.509Z,101736.28
2023-03-03T15:06:32.760Z,101738.44
2023-03-03T15:09:22.785Z,101754.28
2023-03-03T15:11:53.259Z,101739.44
2023-03-03T15:14:23.770Z,101743.06
2023-03-03T15:16:52.827Z,101728.88
2023-03-03T15:19:38.663Z,101724.59
2023-03-03T15:22:16.047Z,101729.31
2023-03-03T15:24:51.049Z,101725.06
2023-03-03T15:27:25.776Z,101730.38
2023-03-03T15:30:05.050Z,101718.88
2023-03-03T15:32:43.348Z,101716.69
2023-03-03T15:35:26.011Z,101727.13
2023-03-03T15:37:59.600Z,101718.22
2023-03-03T15:40:30.381Z,101714.41
2023-03-03T15:43:10.348Z,101708.88
2023-03-03T15:45:46.079Z,101706.13
2023-03-03T15:48:34.974Z,101704.97
2023-03-03T15:51:11.042Z,101701.88
2023-03-03T15:54:02.455Z,101699.28
2023-03-03T15:56:38.132Z,101692.91
2023-03-03T15:59:30.686Z,101690.59
2023-03-03T16:02:09.230Z,101697.00
2023-03-03T16:04:45.054Z,101694.75
2023-03-03T16:07:24.458Z,101696.09
2023-03-03T16:10:00.839Z,101686.38
2023-03-03T16:12:40.574Z,101685.25
2023-03-03T16:15:22.940Z,101688.50
2023-03-03T16:17:58.878Z,101680.00
2023-03-03T16:20:34.283Z,101686.78
2023-03-03T16:23:28.407Z,101673.94
2023-03-03T16:26:05.501Z,101686.63
2023-03-03T16:28:44.405Z,101683.25
2023-03-03T16:31:18.148Z,101683.38
2023-03-03T16:33:56.892Z,101682.41
2023-03-03T16:36:33.210Z,101681.34
2023-03-03T16:39:06.139Z,101682.75
2023-03-03T16:41:44.227Z,101681.88
2023-03-03T16:44:31.207Z,101676.25
2023-03-03T16:47:11.854Z,101676.13
2023-03-03T16:49:49.822Z,101677.00
2023-03-03T16:52:25.476Z,101674.72
2023-03-03T16:54:58.212Z,101672.25
2023-03-03T16:57:34.098Z,101673.44
2023-03-03T17:00:08.954Z,101671.00
2023-03-03T17:02:50.065Z,101673.13
2023-03-03T17:05:27.311Z,101673.72
2023-03-03T17:08:08.528Z,101679.06
2023-03-03T17:10:43.029Z,101681.59
2023-03-03T17:13:30.051Z,101674.63
2023-03-03T17:16:14.223Z,101674.56
2023-03-03T17:18:53.524Z,101676.31
2023-03-03T17:21:28.898Z,101673.53
2023-03-03T17:24:07.257Z,101670.50
2023-03-03T17:26:51.354Z,101668.13
2023-03-03T17:29:46.672Z,101675.97
2023-03-03T17:32:28.898Z,101675.41
2023-03-03T17:35:15.483Z,101677.53
2023-03-03T17:37:51.299Z,101674.44
2023-03-03T17:40:36.939Z,101680.13
2023-03-03T17:43:10.206Z,101676.25
2023-03-03T17:45:42.283Z,101679.44
2023-03-03T17:48:53.927Z,101665.50
2023-03-03T17:51:37.297Z,101667.13
2023-03-03T17:54:29.092Z,101665.13
2023-03-03T17:57:15.111Z,101660.13
2023-03-03T17:59:56.919Z,101671.75
2023-03-03T18:02:46.426Z,101672.00
2023-03-03T18:05:46.385Z,101671.56
2023-03-03T18:08:28.956Z,101669.28
2023-03-03T18:11:11.425Z,101665.25
2023-03-03T18:14:04.616Z,101662.06
2023-03-03T18:16:47.769Z,101668.66
2023-03-03T18:19:46.533Z,101662.38
2023-03-03T18:22:19.570Z,101655.72
2023-03-03T18:24:56.981Z,101661.16
2023-03-03T18:27:34.293Z,101654.94
2023-03-03T18:30:25.161Z,101655.53
2023-03-03T18:33:12.708Z,101646.19
2023-03-03T18:35:44.099Z,101637.66
2023-03-03T18:38:30.287Z,101641.25
2023-03-03T18:40:59.920Z,101639.97
2023-03-03T18:43:52.102Z,101639.16
2023-03-03T18:46:50.376Z,101645.59
2023-03-03T18:49:18.477Z,101643.53
2023-03-03T18:51:53.416Z,101639.78
2023-03-03T18:54:31.287Z,101635.28
2023-03-03T18:57:17.723Z,101642.66
2023-03-03T19:00:10.763Z,101636.16
2023-03-03T19:02:49.673Z,101645.75
2023-03-03T19:05:24.295Z,101640.03
2023-03-03T19:07:57.542Z,101642.63
2023-03-03T19:10:48.893Z,101635.88
2023-03-03T19:13:53.057Z,101627.41
2023-03-03T19:16:36.864Z,101626.59
2023-03-03T19:19:14.961Z,101625.28
2023-03-03T19:21:43.792Z,101624.28
2023-03-03T19:24:34.569Z,101629.78
2023-03-03T19:27:16.252Z,101617.69
2023-03-03T19:30:22.822Z,101621.09
2023-03-03T19:33:10.020Z,101616.44
2023-03-03T19:35:54.595Z,101612.31
2023-03-03T19:38:32.301Z,101607.75
2023-03-03T19:41:08.954Z,101611.56
2023-03-03T19:43:47.062Z,101614.09
2023-03-03T19:46:41.405Z,101622.56
2023-03-03T19:49:18.209Z,101617.97
2023-03-03T19:51:53.427Z,101618.28
2023-03-03T19:54:37.332Z,101626.69
2023-03-03T19:57:12.321Z,101623.38
2023-03-03T19:59:46.528Z,101620.03
2023-03-03T20:02:31.525Z,101612.72
2023-03-03T20:05:08.099Z,101613.78
2023-03-03T20:07:45.320Z,101619.34
2023-03-03T20:10:32.839Z,101614.22
2023-03-03T20:13:12.075Z,101619.72
2023-03-03T20:15:48.333Z,101608.69
2023-03-03T20:18:35.000Z,101611.75
2023-03-03T20:21:09.059Z,101601.94
2023-03-03T20:23:51.023Z,101600.34
2023-03-03T20:26:27.209Z,101595.53
2023-03-03T20:29:15.785Z,101605.88
2023-03-03T20:31:50.972Z,101603.88
2023-03-03T20:34:28.599Z,101606.72
2023-03-03T20:37:01.435Z,101609.03
2023-03-03T20:39:41.440Z,101611.81
2023-03-03T20:42:19.243Z,101613.69
2023-03-03T20:45:01.771Z,101608.72
2023-03-03T20:47:39.241Z,101599.50
2023-03-03T20:50:16.810Z,101598.34
2023-03-03T20:52:55.812Z,101600.22
2023-03-03T20:55:35.005Z,101591.03
2023-03-03T20:58:08.430Z,101589.06
2023-03-03T21:00:44.365Z,101589.00
2023-03-03T21:03:19.407Z,101589.16
2023-03-03T21:05:58.926Z,101584.41
2023-03-03T21:08:48.385Z,101579.81
2023-03-03T21:11:19.079Z,101578.44
2023-03-03T21:13:48.062Z,101585.81
2023-03-03T21:16:31.213Z,101589.69
2023-03-03T21:19:00.200Z,101584.09
2023-03-03T21:21:30.045Z,101577.44
2023-03-03T21:23:59.074Z,101570.41
2023-03-03T21:26:51.871Z,101569.84
2023-03-03T21:29:21.104Z,101564.84
2023-03-03T21:31:49.994Z,101563.91
2023-03-03T21:34:25.793Z,101562.91
2023-03-03T21:36:54.131Z,101559.00
2023-03-03T21:39:24.972Z,101554.22
2023-03-03T21:41:56.281Z,101555.88
2023-03-03T21:44:41.490Z,101549.56
2023-03-03T21:47:10.686Z,101552.78
2023-03-03T21:49:42.461Z,101548.91
2023-03-03T21:52:10.400Z,101550.13
2023-03-03T21:54:37.888Z,101553.06
2023-03-03T21:57:06.690Z,101547.69
2023-03-03T21:59:34.163Z,101538.97
2023-03-03T22:02:01.729Z,101521.81
2023-03-03T22:04:29.656Z,101507.50
2023-03-03T22:06:57.553Z,101504.13
2023-03-03T22:09:25.035Z,101507.84
2023-03-03T22:11:52.505Z,101500.97
2023-03-03T22:14:21.306Z,101500.34
2023-03-03T22:16:48.740Z,101500.09
2023-03-03T22:19:16.356Z,101500.59
2023-03-03T22:21:43.797Z,101497.28
2023-03-03T22:24:11.255Z,101489.88
2023-03-03T22:26:38.719Z,101484.25
2023-03-03T22:29:06.600Z,101483.22
2023-03-03T22:31:35.589Z,101474.47
2023-03-03T22:34:03.271Z,101469.91
2023-03-03T22:36:31.265Z,101460.16
2023-03-03T22:38:58.947Z,101459.22
2023-03-03T22:41:26.464Z,101456.00
2023-03-03T22:43:53.888Z,101462.41
2023-03-03T22:46:21.426Z,101461.34
2023-03-03T22:48:50.371Z,101475.31
2023-03-03T22:51:21.987Z,101462.94
2023-03-03T22:53:49.535Z,101458.91
2023-03-03T22:56:16.964Z,101475.03
2023-03-03T22:58:44.411Z,101472.19
2023-03-03T23:01:11.905Z,101462.09
2023-03-03T23:03:39.474Z,101449.25
2023-03-03T23:06:08.680Z,101444.88
2023-03-03T23:08:36.097Z,101444.16
2023-03-03T23:11:03.774Z,101441.31
2023-03-03T23:13:31.782Z,101447.38
2023-03-03T23:16:00.321Z,101443.06
2023-03-03T23:18:28.411Z,101434.81
2023-03-03T23:20:56.179Z,101427.16
2023-03-03T23:23:25.312Z,101427.63
2023-03-03T23:25:52.761Z,101425.81
2023-03-03T23:28:20.238Z,101420.97
2023-03-03T23:30:47.654Z,101425.66
2023-03-03T23:33:15.274Z,101426.25
2023-03-03T23:35:45.127Z,101428.91
2023-03-03T23:38:15.430Z,101418.53
2023-03-03T23:40:46.576Z,101417.09
2023-03-03T23:43:14.123Z,101420.75
2023-03-03T23:45:41.766Z,101434.38
2023-03-03T23:48:09.759Z,101413.28
2023-03-03T23:50:38.013Z,101424.09
2023-03-03T23:53:05.607Z,101412.34
2023-03-03T23:55:33.107Z,101424.84
2023-03-03T23:58:01.985Z,101422.75
